sensor_id;sensor_type;location;lat;lon;timestamp;temperature;humidity
23102;DHT22;11720;51.214;22.574;2023-03-31T00:00:37;6.90;99.90
23102;DHT22;11720;51.214;22.574;2023-03-31T00:03:03;6.90;99.90
23102;DHT22;11720;51.214;22.574;2023-03-31T00:05:35;6.90;99.90
23102;DHT22;11720;51.214;22.574;2023-03-31T00:08:02;6.90;99.90
23102;DHT22;11720;51.214;22.574;2023-03-31T00:10:32;7.00;99.90
23102;DHT22;11720;51.214;22.574;2023-03-31T00:12:59;6.90;99.90
23102;DHT22;11720;51.214;22.574;2023-03-31T00:15:25;6.90;99.90
23102;DHT22;11720;51.214;22.574;2023-03-31T00:17:51;6.90;99.90
23102;DHT22;11720;51.214;22.574;2023-03-31T00:20:17;7.00;99.90
23102;DHT22;11720;51.214;22.574;2023-03-31T00:22:43;7.00;99.90
23102;DHT22;11720;51.214;22.574;2023-03-31T00:25:13;6.90;99.90
23102;DHT22;11720;51.214;22.574;2023-03-31T00:27:41;6.90;99.90
23102;DHT22;11720;51.214;22.574;2023-03-31T00:30:09;6.90;99.90
23102;DHT22;11720;51.214;22.574;2023-03-31T00:32:35;6.90;99.90
23102;DHT22;11720;51.214;22.574;2023-03-31T00:35:01;6.90;99.90
23102;DHT22;11720;51.214;22.574;2023-03-31T00:37:28;6.90;99.90
23102;DHT22;11720;51.214;22.574;2023-03-31T00:39:55;6.90;99.90
23102;DHT22;11720;51.214;22.574;2023-03-31T00:42:21;6.90;99.90
23102;DHT22;11720;51.214;22.574;2023-03-31T00:47:53;6.90;99.90
23102;DHT22;11720;51.214;22.574;2023-03-31T00:50:22;6.90;99.90
23102;DHT22;11720;51.214;22.574;2023-03-31T00:52:58;6.90;99.90
23102;DHT22;11720;51.214;22.574;2023-03-31T00:55:31;6.90;99.90
23102;DHT22;11720;51.214;22.574;2023-03-31T00:57:58;6.90;99.90
23102;DHT22;11720;51.214;22.574;2023-03-31T01:00:26;6.90;99.90
23102;DHT22;11720;51.214;22.574;2023-03-31T01:02:55;6.90;99.90
23102;DHT22;11720;51.214;22.574;2023-03-31T01:05:30;6.90;99.90
23102;DHT22;11720;51.214;22.574;2023-03-31T01:07:57;6.90;99.90
23102;DHT22;11720;51.214;22.574;2023-03-31T01:10:23;6.90;99.90
23102;DHT22;11720;51.214;22.574;2023-03-31T01:12:53;6.90;99.90
23102;DHT22;11720;51.214;22.574;2023-03-31T01:15:19;6.90;99.90
23102;DHT22;11720;51.214;22.574;2023-03-31T01:17:45;6.90;99.90
23102;DHT22;11720;51.214;22.574;2023-03-31T01:26:54;6.90;99.90
23102;DHT22;11720;51.214;22.574;2023-03-31T01:38:26;6.90;99.90
23102;DHT22;11720;51.214;22.574;2023-03-31T01:41:07;6.90;99.90
23102;DHT22;11720;51.214;22.574;2023-03-31T01:51:56;7.00;99.90
23102;DHT22;11720;51.214;22.574;2023-03-31T01:55:03;7.00;99.90
23102;DHT22;11720;51.214;22.574;2023-03-31T01:57:52;7.00;99.90
23102;DHT22;11720;51.214;22.574;2023-03-31T02:00:23;7.00;99.90
23102;DHT22;11720;51.214;22.574;2023-03-31T02:03:14;7.00;99.90
23102;DHT22;11720;51.214;22.574;2023-03-31T02:06:06;7.10;99.90
23102;DHT22;11720;51.214;22.574;2023-03-31T02:08:42;7.10;99.90
23102;DHT22;11720;51.214;22.574;2023-03-31T02:11:09;7.10;99.90
23102;DHT22;11720;51.214;22.574;2023-03-31T02:13:37;7.10;99.90
23102;DHT22;11720;51.214;22.574;2023-03-31T02:16:07;7.10;99.90
23102;DHT22;11720;51.214;22.574;2023-03-31T02:18:35;7.10;99.90
23102;DHT22;11720;51.214;22.574;2023-03-31T02:21:02;7.10;99.90
23102;DHT22;11720;51.214;22.574;2023-03-31T02:23:30;7.10;99.90
23102;DHT22;11720;51.214;22.574;2023-03-31T02:26:06;7.20;99.90
23102;DHT22;11720;51.214;22.574;2023-03-31T02:28:33;7.20;99.90
23102;DHT22;11720;51.214;22.574;2023-03-31T02:33:36;7.20;99.90
23102;DHT22;11720;51.214;22.574;2023-03-31T02:36:02;7.20;99.90
23102;DHT22;11720;51.214;22.574;2023-03-31T02:38:32;7.20;99.90
23102;DHT22;11720;51.214;22.574;2023-03-31T02:41:01;7.20;99.90
23102;DHT22;11720;51.214;22.574;2023-03-31T02:43:26;7.20;99.90
23102;DHT22;11720;51.214;22.574;2023-03-31T02:45:52;7.20;99.90
23102;DHT22;11720;51.214;22.574;2023-03-31T02:48:19;7.20;99.90
23102;DHT22;11720;51.214;22.574;2023-03-31T02:53:59;7.30;99.90
23102;DHT22;11720;51.214;22.574;2023-03-31T02:59:32;7.30;99.90
23102;DHT22;11720;51.214;22.574;2023-03-31T03:04:39;7.20;99.90
23102;DHT22;11720;51.214;22.574;2023-03-31T03:10:10;7.30;99.90
23102;DHT22;11720;51.214;22.574;2023-03-31T03:15:29;7.30;99.90
23102;DHT22;11720;51.214;22.574;2023-03-31T03:17:57;7.30;99.90
23102;DHT22;11720;51.214;22.574;2023-03-31T03:20:24;7.30;99.90
23102;DHT22;11720;51.214;22.574;2023-03-31T03:22:49;7.30;99.90
23102;DHT22;11720;51.214;22.574;2023-03-31T03:25:16;7.30;99.90
23102;DHT22;11720;51.214;22.574;2023-03-31T03:27:42;7.30;99.90
23102;DHT22;11720;51.214;22.574;2023-03-31T03:30:10;7.30;99.90
23102;DHT22;11720;51.214;22.574;2023-03-31T03:32:36;7.30;99.90
23102;DHT22;11720;51.214;22.574;2023-03-31T03:35:03;7.30;99.90
23102;DHT22;11720;51.214;22.574;2023-03-31T03:37:29;7.30;99.90
23102;DHT22;11720;51.214;22.574;2023-03-31T03:42:21;7.40;99.90
23102;DHT22;11720;51.214;22.574;2023-03-31T03:44:47;7.30;99.90
23102;DHT22;11720;51.214;22.574;2023-03-31T03:47:13;7.40;99.90
23102;DHT22;11720;51.214;22.574;2023-03-31T03:49:39;7.40;99.90
23102;DHT22;11720;51.214;22.574;2023-03-31T03:52:04;7.40;99.90
23102;DHT22;11720;51.214;22.574;2023-03-31T03:56:56;7.40;99.90
23102;DHT22;11720;51.214;22.574;2023-03-31T03:59:22;7.50;99.90
23102;DHT22;11720;51.214;22.574;2023-03-31T04:01:48;7.50;99.90
23102;DHT22;11720;51.214;22.574;2023-03-31T04:04:14;7.50;99.90
23102;DHT22;11720;51.214;22.574;2023-03-31T04:06:39;7.50;99.90
23102;DHT22;11720;51.214;22.574;2023-03-31T04:09:05;7.60;99.90
23102;DHT22;11720;51.214;22.574;2023-03-31T04:11:31;7.60;99.90
23102;DHT22;11720;51.214;22.574;2023-03-31T04:13:57;7.60;99.90
23102;DHT22;11720;51.214;22.574;2023-03-31T04:16:22;7.60;99.90
23102;DHT22;11720;51.214;22.574;2023-03-31T04:23:54;7.80;99.90
23102;DHT22;11720;51.214;22.574;2023-03-31T04:26:33;7.70;99.90
23102;DHT22;11720;51.214;22.574;2023-03-31T04:29:17;7.80;99.90
23102;DHT22;11720;51.214;22.574;2023-03-31T04:31:46;7.80;99.90
23102;DHT22;11720;51.214;22.574;2023-03-31T04:34:14;7.90;99.90
23102;DHT22;11720;51.214;22.574;2023-03-31T04:36:45;8.00;99.90
23102;DHT22;11720;51.214;22.574;2023-03-31T04:39:12;7.90;99.90
23102;DHT22;11720;51.214;22.574;2023-03-31T04:46:31;8.10;99.90
23102;DHT22;11720;51.214;22.574;2023-03-31T05:01:09;8.30;99.90
23102;DHT22;11720;51.214;22.574;2023-03-31T05:06:04;8.30;99.90
23102;DHT22;11720;51.214;22.574;2023-03-31T05:13:22;8.30;99.90
23102;DHT22;11720;51.214;22.574;2023-03-31T05:15:48;8.30;99.90
23102;DHT22;11720;51.214;22.574;2023-03-31T05:18:16;8.40;99.90
23102;DHT22;11720;51.214;22.574;2023-03-31T05:20:42;8.40;99.90
23102;DHT22;11720;51.214;22.574;2023-03-31T05:25:33;8.40;99.90
23102;DHT22;11720;51.214;22.574;2023-03-31T05:28:00;8.40;99.90
23102;DHT22;11720;51.214;22.574;2023-03-31T05:32:52;8.30;99.90
23102;DHT22;11720;51.214;22.574;2023-03-31T05:35:18;8.50;99.90
23102;DHT22;11720;51.214;22.574;2023-03-31T05:37:43;8.50;99.90
23102;DHT22;11720;51.214;22.574;2023-03-31T05:40:09;8.50;99.90
23102;DHT22;11720;51.214;22.574;2023-03-31T05:42:36;8.50;99.90
23102;DHT22;11720;51.214;22.574;2023-03-31T05:45:02;8.50;99.90
23102;DHT22;11720;51.214;22.574;2023-03-31T05:47:28;8.50;99.90
23102;DHT22;11720;51.214;22.574;2023-03-31T05:49:54;8.60;99.90
23102;DHT22;11720;51.214;22.574;2023-03-31T05:52:20;8.70;99.90
23102;DHT22;11720;51.214;22.574;2023-03-31T05:57:12;8.70;99.90
23102;DHT22;11720;51.214;22.574;2023-03-31T06:06:58;8.90;99.90
23102;DHT22;11720;51.214;22.574;2023-03-31T06:09:25;8.90;99.90
23102;DHT22;11720;51.214;22.574;2023-03-31T06:14:17;9.00;99.90
23102;DHT22;11720;51.214;22.574;2023-03-31T06:19:08;9.10;99.90
23102;DHT22;11720;51.214;22.574;2023-03-31T06:21:34;9.20;99.90
23102;DHT22;11720;51.214;22.574;2023-03-31T06:24:00;9.30;99.90
23102;DHT22;11720;51.214;22.574;2023-03-31T06:26:26;9.30;99.90
23102;DHT22;11720;51.214;22.574;2023-03-31T06:28:52;9.40;99.90
23102;DHT22;11720;51.214;22.574;2023-03-31T06:31:21;9.50;99.90
23102;DHT22;11720;51.214;22.574;2023-03-31T06:33:47;9.50;99.90
23102;DHT22;11720;51.214;22.574;2023-03-31T06:36:16;9.60;99.90
23102;DHT22;11720;51.214;22.574;2023-03-31T06:38:42;9.70;99.90
23102;DHT22;11720;51.214;22.574;2023-03-31T06:41:10;9.80;99.90
23102;DHT22;11720;51.214;22.574;2023-03-31T06:43:36;9.90;99.90
23102;DHT22;11720;51.214;22.574;2023-03-31T06:46:02;10.00;99.90
23102;DHT22;11720;51.214;22.574;2023-03-31T06:50:54;10.20;99.90
23102;DHT22;11720;51.214;22.574;2023-03-31T06:53:20;10.30;99.90
23102;DHT22;11720;51.214;22.574;2023-03-31T06:55:46;10.30;99.90
23102;DHT22;11720;51.214;22.574;2023-03-31T06:58:13;10.40;99.90
23102;DHT22;11720;51.214;22.574;2023-03-31T07:00:39;10.30;99.90
23102;DHT22;11720;51.214;22.574;2023-03-31T07:03:05;10.30;99.90
23102;DHT22;11720;51.214;22.574;2023-03-31T07:05:33;10.30;99.90
23102;DHT22;11720;51.214;22.574;2023-03-31T07:08:00;10.30;99.90
23102;DHT22;11720;51.214;22.574;2023-03-31T07:10:28;10.20;99.90
23102;DHT22;11720;51.214;22.574;2023-03-31T07:12:55;10.20;99.90
23102;DHT22;11720;51.214;22.574;2023-03-31T07:15:21;10.20;99.90
23102;DHT22;11720;51.214;22.574;2023-03-31T07:17:47;10.20;99.90
23102;DHT22;11720;51.214;22.574;2023-03-31T07:20:16;10.20;99.90
23102;DHT22;11720;51.214;22.574;2023-03-31T07:22:47;10.20;99.90
23102;DHT22;11720;51.214;22.574;2023-03-31T07:25:14;10.30;99.90
23102;DHT22;11720;51.214;22.574;2023-03-31T07:27:41;10.50;99.90
23102;DHT22;11720;51.214;22.574;2023-03-31T07:30:09;10.60;99.90
23102;DHT22;11720;51.214;22.574;2023-03-31T07:32:35;10.70;99.90
23102;DHT22;11720;51.214;22.574;2023-03-31T07:35:05;10.70;99.90
23102;DHT22;11720;51.214;22.574;2023-03-31T07:37:42;10.80;99.90
23102;DHT22;11720;51.214;22.574;2023-03-31T07:40:11;11.00;99.90
23102;DHT22;11720;51.214;22.574;2023-03-31T07:42:37;11.10;99.90
23102;DHT22;11720;51.214;22.574;2023-03-31T07:45:03;11.30;99.90
23102;DHT22;11720;51.214;22.574;2023-03-31T07:47:32;11.30;99.90
23102;DHT22;11720;51.214;22.574;2023-03-31T07:49:58;11.40;99.90
23102;DHT22;11720;51.214;22.574;2023-03-31T07:52:23;11.30;99.90
23102;DHT22;11720;51.214;22.574;2023-03-31T07:54:49;11.30;99.90
23102;DHT22;11720;51.214;22.574;2023-03-31T07:57:16;11.40;99.90
23102;DHT22;11720;51.214;22.574;2023-03-31T07:59:44;11.40;99.90
23102;DHT22;11720;51.214;22.574;2023-03-31T08:02:12;11.30;99.90
23102;DHT22;11720;51.214;22.574;2023-03-31T08:04:38;11.40;99.90
23102;DHT22;11720;51.214;22.574;2023-03-31T08:07:07;11.40;99.90
23102;DHT22;11720;51.214;22.574;2023-03-31T08:09:32;11.40;99.90
23102;DHT22;11720;51.214;22.574;2023-03-31T08:11:58;11.50;99.90
23102;DHT22;11720;51.214;22.574;2023-03-31T08:14:24;11.50;99.90
23102;DHT22;11720;51.214;22.574;2023-03-31T08:16:49;11.60;99.90
23102;DHT22;11720;51.214;22.574;2023-03-31T08:19:17;11.70;99.90
23102;DHT22;11720;51.214;22.574;2023-03-31T08:21:43;11.70;99.90
23102;DHT22;11720;51.214;22.574;2023-03-31T08:24:09;11.60;99.90
23102;DHT22;11720;51.214;22.574;2023-03-31T08:26:34;11.50;99.90
23102;DHT22;11720;51.214;22.574;2023-03-31T08:29:01;11.70;99.90
23102;DHT22;11720;51.214;22.574;2023-03-31T08:31:28;11.80;99.90
23102;DHT22;11720;51.214;22.574;2023-03-31T08:33:54;11.70;99.90
23102;DHT22;11720;51.214;22.574;2023-03-31T08:36:20;11.70;99.90
23102;DHT22;11720;51.214;22.574;2023-03-31T08:38:46;11.70;99.90
23102;DHT22;11720;51.214;22.574;2023-03-31T08:43:59;11.90;99.90
23102;DHT22;11720;51.214;22.574;2023-03-31T08:46:27;11.90;99.90
23102;DHT22;11720;51.214;22.574;2023-03-31T08:48:56;11.90;99.90
23102;DHT22;11720;51.214;22.574;2023-03-31T08:51:28;12.00;99.90
23102;DHT22;11720;51.214;22.574;2023-03-31T08:54:00;12.10;99.90
23102;DHT22;11720;51.214;22.574;2023-03-31T08:56:28;12.30;99.90
23102;DHT22;11720;51.214;22.574;2023-03-31T08:58:55;12.30;99.90
23102;DHT22;11720;51.214;22.574;2023-03-31T09:16:01;12.80;99.90
23102;DHT22;11720;51.214;22.574;2023-03-31T09:18:36;12.80;99.90
23102;DHT22;11720;51.214;22.574;2023-03-31T09:26:36;12.50;99.90
23102;DHT22;11720;51.214;22.574;2023-03-31T09:29:18;12.40;99.90
23102;DHT22;11720;51.214;22.574;2023-03-31T09:31:46;12.50;99.90
23102;DHT22;11720;51.214;22.574;2023-03-31T09:34:37;12.60;99.90
23102;DHT22;11720;51.214;22.574;2023-03-31T09:37:02;12.70;99.90
23102;DHT22;11720;51.214;22.574;2023-03-31T09:39:28;13.00;99.90
23102;DHT22;11720;51.214;22.574;2023-03-31T09:41:54;12.80;99.90
23102;DHT22;11720;51.214;22.574;2023-03-31T09:44:37;13.00;99.90
23102;DHT22;11720;51.214;22.574;2023-03-31T09:47:05;13.10;99.90
23102;DHT22;11720;51.214;22.574;2023-03-31T09:49:34;13.20;99.90
23102;DHT22;11720;51.214;22.574;2023-03-31T09:52:01;13.30;99.90
23102;DHT22;11720;51.214;22.574;2023-03-31T09:54:35;13.50;99.90
23102;DHT22;11720;51.214;22.574;2023-03-31T09:57:02;13.60;99.90
23102;DHT22;11720;51.214;22.574;2023-03-31T09:59:34;13.50;99.90
23102;DHT22;11720;51.214;22.574;2023-03-31T10:02:20;13.70;99.90
23102;DHT22;11720;51.214;22.574;2023-03-31T10:04:49;13.60;99.90
23102;DHT22;11720;51.214;22.574;2023-03-31T10:07:20;13.70;99.90
23102;DHT22;11720;51.214;22.574;2023-03-31T10:09:47;13.60;99.90
23102;DHT22;11720;51.214;22.574;2023-03-31T10:12:18;13.60;99.90
23102;DHT22;11720;51.214;22.574;2023-03-31T10:14:50;13.50;99.90
23102;DHT22;11720;51.214;22.574;2023-03-31T10:17:27;13.60;99.90
23102;DHT22;11720;51.214;22.574;2023-03-31T10:20:04;13.60;99.90
23102;DHT22;11720;51.214;22.574;2023-03-31T10:22:33;13.70;99.90
23102;DHT22;11720;51.214;22.574;2023-03-31T10:25:19;13.80;99.90
23102;DHT22;11720;51.214;22.574;2023-03-31T10:27:52;13.90;99.90
23102;DHT22;11720;51.214;22.574;2023-03-31T10:30:29;14.00;99.90
23102;DHT22;11720;51.214;22.574;2023-03-31T10:33:03;13.90;99.90
23102;DHT22;11720;51.214;22.574;2023-03-31T10:35:32;14.00;99.90
23102;DHT22;11720;51.214;22.574;2023-03-31T10:38:02;13.90;99.90
23102;DHT22;11720;51.214;22.574;2023-03-31T10:40:30;13.70;99.90
23102;DHT22;11720;51.214;22.574;2023-03-31T10:43:14;13.80;99.90
23102;DHT22;11720;51.214;22.574;2023-03-31T10:45:49;13.80;99.90
23102;DHT22;11720;51.214;22.574;2023-03-31T10:48:24;13.80;99.90
23102;DHT22;11720;51.214;22.574;2023-03-31T10:50:51;14.10;99.90
23102;DHT22;11720;51.214;22.574;2023-03-31T10:53:17;14.30;99.90
23102;DHT22;11720;51.214;22.574;2023-03-31T10:56:24;14.60;99.90
23102;DHT22;11720;51.214;22.574;2023-03-31T10:59:05;14.80;99.90
23102;DHT22;11720;51.214;22.574;2023-03-31T11:02:22;14.80;99.90
23102;DHT22;11720;51.214;22.574;2023-03-31T11:07:36;14.60;99.90
23102;DHT22;11720;51.214;22.574;2023-03-31T11:18:49;14.50;99.90
23102;DHT22;11720;51.214;22.574;2023-03-31T11:42:58;15.40;99.90
23102;DHT22;11720;51.214;22.574;2023-03-31T11:45:28;15.20;99.90
23102;DHT22;11720;51.214;22.574;2023-03-31T11:48:06;15.00;99.90
23102;DHT22;11720;51.214;22.574;2023-03-31T11:50:36;15.00;99.90
23102;DHT22;11720;51.214;22.574;2023-03-31T11:53:20;14.90;99.90
23102;DHT22;11720;51.214;22.574;2023-03-31T11:55:50;14.90;99.90
23102;DHT22;11720;51.214;22.574;2023-03-31T11:58:29;14.90;99.90
23102;DHT22;11720;51.214;22.574;2023-03-31T12:06:18;14.60;99.90
23102;DHT22;11720;51.214;22.574;2023-03-31T12:14:30;14.40;99.90
23102;DHT22;11720;51.214;22.574;2023-03-31T12:17:18;14.40;99.90
23102;DHT22;11720;51.214;22.574;2023-03-31T12:19:54;14.40;99.90
23102;DHT22;11720;51.214;22.574;2023-03-31T12:22:31;14.30;99.90
23102;DHT22;11720;51.214;22.574;2023-03-31T12:24:59;14.30;99.90
23102;DHT22;11720;51.214;22.574;2023-03-31T12:27:36;14.30;99.90
23102;DHT22;11720;51.214;22.574;2023-03-31T12:30:31;14.30;99.90
23102;DHT22;11720;51.214;22.574;2023-03-31T12:33:36;14.40;99.90
23102;DHT22;11720;51.214;22.574;2023-03-31T12:39:17;14.20;99.90
23102;DHT22;11720;51.214;22.574;2023-03-31T12:44:34;14.10;99.90
23102;DHT22;11720;51.214;22.574;2023-03-31T12:52:54;14.10;99.90
23102;DHT22;11720;51.214;22.574;2023-03-31T12:55:56;14.00;99.90
23102;DHT22;11720;51.214;22.574;2023-03-31T13:01:21;14.00;99.90
23102;DHT22;11720;51.214;22.574;2023-03-31T13:16:54;14.60;99.90
23102;DHT22;11720;51.214;22.574;2023-03-31T13:19:35;14.70;99.90
23102;DHT22;11720;51.214;22.574;2023-03-31T13:22:03;14.70;99.90
23102;DHT22;11720;51.214;22.574;2023-03-31T13:24:30;14.70;99.90
23102;DHT22;11720;51.214;22.574;2023-03-31T13:27:38;14.60;99.90
23102;DHT22;11720;51.214;22.574;2023-03-31T13:30:12;14.50;99.90
23102;DHT22;11720;51.214;22.574;2023-03-31T13:33:13;14.50;99.90
23102;DHT22;11720;51.214;22.574;2023-03-31T13:35:42;14.40;99.90
23102;DHT22;11720;51.214;22.574;2023-03-31T13:38:29;14.40;99.90
23102;DHT22;11720;51.214;22.574;2023-03-31T14:00:00;14.10;99.90
23102;DHT22;11720;51.214;22.574;2023-03-31T14:02:52;14.20;99.90
23102;DHT22;11720;51.214;22.574;2023-03-31T14:05:38;14.10;99.90
23102;DHT22;11720;51.214;22.574;2023-03-31T14:08:07;14.10;99.90
23102;DHT22;11720;51.214;22.574;2023-03-31T14:10:39;14.20;99.90
23102;DHT22;11720;51.214;22.574;2023-03-31T14:13:14;14.20;99.90
23102;DHT22;11720;51.214;22.574;2023-03-31T14:16:06;14.20;99.90
23102;DHT22;11720;51.214;22.574;2023-03-31T14:18:36;14.30;99.90
23102;DHT22;11720;51.214;22.574;2023-03-31T14:21:27;14.30;99.90
23102;DHT22;11720;51.214;22.574;2023-03-31T14:24:04;14.40;99.90
23102;DHT22;11720;51.214;22.574;2023-03-31T14:29:25;14.60;99.90
23102;DHT22;11720;51.214;22.574;2023-03-31T14:32:12;14.70;99.90
23102;DHT22;11720;51.214;22.574;2023-03-31T14:35:03;14.80;99.90
23102;DHT22;11720;51.214;22.574;2023-03-31T14:37:30;15.20;99.90
23102;DHT22;11720;51.214;22.574;2023-03-31T14:39:57;15.10;99.90
23102;DHT22;11720;51.214;22.574;2023-03-31T14:42:39;15.20;99.90
23102;DHT22;11720;51.214;22.574;2023-03-31T14:45:31;15.40;99.90
23102;DHT22;11720;51.214;22.574;2023-03-31T14:48:12;15.50;99.90
23102;DHT22;11720;51.214;22.574;2023-03-31T14:50:42;15.30;98.80
23102;DHT22;11720;51.214;22.574;2023-03-31T14:53:23;15.20;98.80
23102;DHT22;11720;51.214;22.574;2023-03-31T14:55:49;15.10;98.60
23102;DHT22;11720;51.214;22.574;2023-03-31T14:58:24;15.00;98.40
23102;DHT22;11720;51.214;22.574;2023-03-31T15:00:51;14.90;98.90
23102;DHT22;11720;51.214;22.574;2023-03-31T15:03:17;14.80;98.50
23102;DHT22;11720;51.214;22.574;2023-03-31T15:05:43;14.80;98.80
23102;DHT22;11720;51.214;22.574;2023-03-31T15:08:14;14.80;98.70
23102;DHT22;11720;51.214;22.574;2023-03-31T15:10:42;14.80;98.40
23102;DHT22;11720;51.214;22.574;2023-03-31T15:13:19;14.70;98.90
23102;DHT22;11720;51.214;22.574;2023-03-31T15:15:45;14.70;98.80
23102;DHT22;11720;51.214;22.574;2023-03-31T15:18:12;14.60;99.20
23102;DHT22;11720;51.214;22.574;2023-03-31T15:20:43;14.60;99.50
23102;DHT22;11720;51.214;22.574;2023-03-31T15:23:20;14.60;99.80
23102;DHT22;11720;51.214;22.574;2023-03-31T15:25:50;14.60;99.90
23102;DHT22;11720;51.214;22.574;2023-03-31T15:28:18;14.60;99.90
23102;DHT22;11720;51.214;22.574;2023-03-31T15:30:47;14.70;99.90
23102;DHT22;11720;51.214;22.574;2023-03-31T15:33:19;14.70;99.90
23102;DHT22;11720;51.214;22.574;2023-03-31T15:35:46;14.70;99.90
23102;DHT22;11720;51.214;22.574;2023-03-31T15:38:14;14.70;99.90
23102;DHT22;11720;51.214;22.574;2023-03-31T15:40:44;14.70;99.90
23102;DHT22;11720;51.214;22.574;2023-03-31T15:45:37;14.60;99.90
23102;DHT22;11720;51.214;22.574;2023-03-31T15:50:48;14.50;99.90
23102;DHT22;11720;51.214;22.574;2023-03-31T15:58:59;14.30;99.90
23102;DHT22;11720;51.214;22.574;2023-03-31T16:01:40;14.30;99.90
23102;DHT22;11720;51.214;22.574;2023-03-31T16:04:12;14.20;99.90
23102;DHT22;11720;51.214;22.574;2023-03-31T16:06:49;14.20;99.90
23102;DHT22;11720;51.214;22.574;2023-03-31T16:09:24;14.20;99.90
23102;DHT22;11720;51.214;22.574;2023-03-31T16:11:57;14.10;99.90
23102;DHT22;11720;51.214;22.574;2023-03-31T16:14:49;14.10;99.90
23102;DHT22;11720;51.214;22.574;2023-03-31T16:17:30;14.00;99.90
23102;DHT22;11720;51.214;22.574;2023-03-31T16:20:07;13.90;99.90
23102;DHT22;11720;51.214;22.574;2023-03-31T16:22:44;13.80;99.90
23102;DHT22;11720;51.214;22.574;2023-03-31T16:25:15;13.70;99.90
23102;DHT22;11720;51.214;22.574;2023-03-31T16:27:50;13.60;99.90
23102;DHT22;11720;51.214;22.574;2023-03-31T16:30:20;13.60;99.90
23102;DHT22;11720;51.214;22.574;2023-03-31T16:33:10;13.50;99.90
23102;DHT22;11720;51.214;22.574;2023-03-31T16:35:41;13.40;99.90
23102;DHT22;11720;51.214;22.574;2023-03-31T16:38:09;13.40;99.90
23102;DHT22;11720;51.214;22.574;2023-03-31T16:40:39;13.30;99.90
23102;DHT22;11720;51.214;22.574;2023-03-31T16:43:17;13.20;99.90
23102;DHT22;11720;51.214;22.574;2023-03-31T16:45:50;13.00;99.90
23102;DHT22;11720;51.214;22.574;2023-03-31T16:48:18;12.90;99.90
23102;DHT22;11720;51.214;22.574;2023-03-31T16:50:46;11.90;99.90
23102;DHT22;11720;51.214;22.574;2023-03-31T16:53:17;12.70;99.90
23102;DHT22;11720;51.214;22.574;2023-03-31T16:55:43;12.60;99.90
23102;DHT22;11720;51.214;22.574;2023-03-31T16:58:09;12.50;99.90
23102;DHT22;11720;51.214;22.574;2023-03-31T17:00:37;12.40;99.90
23102;DHT22;11720;51.214;22.574;2023-03-31T17:03:06;12.30;99.90
23102;DHT22;11720;51.214;22.574;2023-03-31T17:05:40;12.30;99.90
23102;DHT22;11720;51.214;22.574;2023-03-31T17:08:07;12.20;99.90
23102;DHT22;11720;51.214;22.574;2023-03-31T17:10:33;12.10;99.90
23102;DHT22;11720;51.214;22.574;2023-03-31T17:12:59;12.00;99.90
23102;DHT22;11720;51.214;22.574;2023-03-31T17:15:25;11.90;99.90
23102;DHT22;11720;51.214;22.574;2023-03-31T17:17:53;11.90;99.90
23102;DHT22;11720;51.214;22.574;2023-03-31T17:20:19;11.80;99.90
23102;DHT22;11720;51.214;22.574;2023-03-31T17:22:45;11.80;99.90
23102;DHT22;11720;51.214;22.574;2023-03-31T17:25:11;11.70;99.90
23102;DHT22;11720;51.214;22.574;2023-03-31T17:27:37;11.70;99.90
23102;DHT22;11720;51.214;22.574;2023-03-31T17:30:05;11.70;99.90
23102;DHT22;11720;51.214;22.574;2023-03-31T17:32:30;11.60;99.90
23102;DHT22;11720;51.214;22.574;2023-03-31T17:34:57;11.60;99.90
23102;DHT22;11720;51.214;22.574;2023-03-31T17:37:23;11.60;99.90
23102;DHT22;11720;51.214;22.574;2023-03-31T17:39:49;11.50;99.90
23102;DHT22;11720;51.214;22.574;2023-03-31T17:42:15;11.50;99.90
23102;DHT22;11720;51.214;22.574;2023-03-31T17:44:41;11.50;99.90
23102;DHT22;11720;51.214;22.574;2023-03-31T17:47:07;11.50;99.90
23102;DHT22;11720;51.214;22.574;2023-03-31T17:49:33;11.50;99.90
23102;DHT22;11720;51.214;22.574;2023-03-31T17:51:59;11.50;99.90
23102;DHT22;11720;51.214;22.574;2023-03-31T17:54:25;11.10;99.90
23102;DHT22;11720;51.214;22.574;2023-03-31T17:56:51;11.40;99.90
23102;DHT22;11720;51.214;22.574;2023-03-31T17:59:18;11.40;99.90
23102;DHT22;11720;51.214;22.574;2023-03-31T18:01:44;11.40;99.90
23102;DHT22;11720;51.214;22.574;2023-03-31T18:04:11;11.40;99.90
23102;DHT22;11720;51.214;22.574;2023-03-31T18:06:38;11.40;99.90
23102;DHT22;11720;51.214;22.574;2023-03-31T18:09:04;11.40;99.90
23102;DHT22;11720;51.214;22.574;2023-03-31T18:11:31;11.40;99.90
23102;DHT22;11720;51.214;22.574;2023-03-31T18:13:58;11.40;99.90
23102;DHT22;11720;51.214;22.574;2023-03-31T18:16:28;11.30;99.90
23102;DHT22;11720;51.214;22.574;2023-03-31T18:18:55;11.30;99.90
23102;DHT22;11720;51.214;22.574;2023-03-31T18:21:20;11.30;99.90
23102;DHT22;11720;51.214;22.574;2023-03-31T18:23:48;11.20;99.90
23102;DHT22;11720;51.214;22.574;2023-03-31T18:26:17;11.20;99.90
23102;DHT22;11720;51.214;22.574;2023-03-31T18:28:44;11.20;99.90
23102;DHT22;11720;51.214;22.574;2023-03-31T18:31:10;11.30;99.90
23102;DHT22;11720;51.214;22.574;2023-03-31T18:33:37;11.50;99.90
23102;DHT22;11720;51.214;22.574;2023-03-31T18:36:04;11.70;99.90
23102;DHT22;11720;51.214;22.574;2023-03-31T18:38:30;11.70;99.90
23102;DHT22;11720;51.214;22.574;2023-03-31T18:40:57;11.80;99.90
23102;DHT22;11720;51.214;22.574;2023-03-31T18:43:23;11.80;99.90
23102;DHT22;11720;51.214;22.574;2023-03-31T18:45:50;11.90;99.90
23102;DHT22;11720;51.214;22.574;2023-03-31T18:48:17;11.80;99.90
23102;DHT22;11720;51.214;22.574;2023-03-31T18:50:47;11.80;99.90
23102;DHT22;11720;51.214;22.574;2023-03-31T18:53:14;11.80;99.90
23102;DHT22;11720;51.214;22.574;2023-03-31T18:55:40;11.80;99.90
23102;DHT22;11720;51.214;22.574;2023-03-31T18:58:07;11.70;99.90
23102;DHT22;11720;51.214;22.574;2023-03-31T19:00:33;11.70;99.90
23102;DHT22;11720;51.214;22.574;2023-03-31T19:03:00;11.70;99.90
23102;DHT22;11720;51.214;22.574;2023-03-31T19:05:25;11.60;99.90
23102;DHT22;11720;51.214;22.574;2023-03-31T19:07:51;11.60;99.90
23102;DHT22;11720;51.214;22.574;2023-03-31T19:12:47;11.50;99.90
23102;DHT22;11720;51.214;22.574;2023-03-31T19:15:13;11.40;99.90
23102;DHT22;11720;51.214;22.574;2023-03-31T19:17:39;11.40;99.90
23102;DHT22;11720;51.214;22.574;2023-03-31T19:20:05;11.40;99.90
23102;DHT22;11720;51.214;22.574;2023-03-31T19:22:31;11.40;99.90
23102;DHT22;11720;51.214;22.574;2023-03-31T19:24:57;12.60;99.90
23102;DHT22;11720;51.214;22.574;2023-03-31T19:27:22;11.10;99.90
23102;DHT22;11720;51.214;22.574;2023-03-31T19:29:48;11.30;99.90